Coastal Nomad — WDC6439 — position and weather

sailwx.info

Track history (hours):
 
Tides and Currents Weather Stations Pressure Air Temp Water Temp Dewpoint Dewpoint Depression Visibility Wind Speed Wind Dir Waves Ship Positions

Coastal Nomad

Owner: Coastal Transportation, Inc., Seattle, WA. More information available from US FCC via Universal Licensing System and Coast Guard Vessel Documentation Center.

Last reported at 2016-Apr-19 00:00 UTC. Time now 2016-May-02 05:56 UTC.
Position N 53°42' W 137°12'.
Warning: this ship's position is 13 days out of date.

Length 74 m; draft 4.2 m.

Type: Cargo ship. MMSI: 303683000.

Wind from 300 at 18 knots

Waves 1.5 meters (5 feet)

Barometer 1020.0 mb
Air temperature 7.8 ° C
Visibility: greater than 5.4 NM

Date/timePositionNaut miles runAvg speedWind from/ knotsBaromVisibWave heightAir tempDewpointWater temp
2016-Apr-19 00:00N 53°42' W 137°12'37711.5 300 / 181020.0 5.4 1.5 7.8
2016-Apr-17 15:12N 50°60' W 127°55'711.5
2016-Apr-17 14:33N 50°57' W 127°44'1212.3
2016-Apr-17 13:33N 50°50' W 127°28'1312.9
2016-Apr-17 12:33N 50°45' W 127°09'1512.5
2016-Apr-17 11:23N 50°39' W 126°48'4511.7
2016-Apr-17 07:32N 50°22' W 125°42'1010.2
2016-Apr-17 06:33N 50°20' W 125°27'1110.9
2016-Apr-17 05:33N 50°10' W 125°22'9 9.0
2016-Apr-17 04:33N 50°03' W 125°14'1111.5
2016-Apr-17 03:33N 49°54' W 125°02'1212.4
2016-Apr-17 02:33N 49°46' W 124°47'1312.6
2016-Apr-17 01:33N 49°38' W 124°32'1312.6
2016-Apr-17 00:33N 49°32' W 124°15'1212.5
2016-Apr-16 23:33N 49°24' W 124°00'1212.2
2016-Apr-16 22:33N 49°17' W 123°45'1312.8
2016-Apr-16 21:34N 49°09' W 123°30'1212.4
2016-Apr-16 20:33N 49°01' W 123°16'1212.2
2016-Apr-16 19:33N 48°53' W 123°02'1312.7
2016-Apr-16 18:33N 48°45' W 122°46'1111.2
2016-Apr-16 17:34N 48°34' W 122°45'1211.7
2016-Apr-16 16:33N 48°22' W 122°45'1111.3
2016-Apr-16 15:33N 48°11' W 122°46'1313.6
2016-Apr-16 14:33N 47°59' W 122°35'1312.8
2016-Apr-16 13:34N 47°48' W 122°26'9 8.5
2016-Apr-16 12:34N 47°40' W 122°24'1 1.0
2016-Apr-16 11:34N 47°39' W 122°22'0 0.0
2016-Apr-16 10:34N 47°39' W 122°22'0 0.0
2016-Apr-16 09:34N 47°39' W 122°22'0 0.0
2016-Apr-16 08:33N 47°39' W 122°22'0 0.0
2016-Apr-16 07:34N 47°39' W 122°22'0 0.0
2016-Apr-16 06:34N 47°39' W 122°22'0 0.0
2016-Apr-16 05:33N 47°39' W 122°22'0 0.0
2016-Apr-16 04:34N 47°39' W 122°22'0 0.0
2016-Apr-16 03:34N 47°39' W 122°22'0 0.0
2016-Apr-16 02:34N 47°39' W 122°22'0 0.0
2016-Apr-16 01:34N 47°39' W 122°22'0 0.0
2016-Apr-16 00:34N 47°39' W 122°22'0 0.0
2016-Apr-15 23:34N 47°39' W 122°22'0 0.0
2016-Apr-15 22:31N 47°39' W 122°22'0 0.0
2016-Apr-15 21:32N 47°39' W 122°22'0 0.0
2016-Apr-15 20:31N 47°39' W 122°22'0 0.0
2016-Apr-15 19:32N 47°39' W 122°22'0 0.0
2016-Apr-15 18:32N 47°39' W 122°22'0 0.0
2016-Apr-15 17:31N 47°39' W 122°22'  
2016-Apr-09 21:33N 47°40' W 122°24'7 6.5
2016-Apr-09 20:33N 47°46' W 122°27'1110.6
2016-Apr-09 19:34N 47°56' W 122°32'9 8.6
2016-Apr-09 18:31N 48°04' W 122°40'7 6.9
2016-Apr-09 17:28N 48°10' W 122°45'6 6.6
2016-Apr-09 16:33N 48°15' W 122°49'1110.8
2016-Apr-09 15:33N 48°26' W 122°45'1110.8
2016-Apr-09 14:33N 48°37' W 122°45'9 8.7
2016-Apr-09 13:33N 48°45' W 122°48'10 9.8
2016-Apr-09 12:34N 48°50' W 123°01'10 9.5
2016-Apr-09 11:33N 48°56' W 123°13'10 9.9
2016-Apr-09 10:33N 49°03' W 123°24'1010.5
2016-Apr-09 09:34N 49°10' W 123°36'1110.6
2016-Apr-09 08:34N 49°16' W 123°48'1110.9
2016-Apr-09 07:33N 49°23' W 124°01'1110.6
2016-Apr-09 06:34N 49°31' W 124°12'1010.2
2016-Apr-09 05:34N 49°36' W 124°26'1010.0
2016-Apr-09 04:34N 49°41' W 124°39'1010.2
2016-Apr-09 03:34N 49°48' W 124°51'1010.1
2016-Apr-09 02:33N 49°55' W 125°03'1010.4
2016-Apr-09 01:34N 50°02' W 125°14'1211.9
2016-Apr-09 00:34N 50°13' W 125°22'  
Track history (hours):
 
Tides and Currents Weather Stations Pressure Air Temp Water Temp Dewpoint Dewpoint Depression Visibility Wind Speed Wind Dir Waves Ship Positions

Coastal Nomad

Owner: Coastal Transportation, Inc., Seattle, WA. More information available from US FCC via Universal Licensing System and Coast Guard Vessel Documentation Center.

Last reported at 2016-Apr-19 00:00 UTC. Time now 2016-May-02 05:56 UTC.
Position N 53°42' W 137°12'.
Warning: this ship's position is 13 days out of date.

Length 74 m; draft 4.2 m.

Type: Cargo ship. MMSI: 303683000.

Wind from 300 at 18 knots

Waves 1.5 meters (5 feet)

Barometer 1020.0 mb
Air temperature 7.8 ° C
Visibility: greater than 5.4 NM

Date/timePositionNaut miles runAvg speedWind from/ knotsBaromVisibWave heightAir tempDewpointWater temp
2016-Apr-19 00:00N 53°42' W 137°12'37711.5 300 / 181020.0 5.4 1.5 7.8
2016-Apr-17 15:12N 50°60' W 127°55'711.5
2016-Apr-17 14:33N 50°57' W 127°44'1212.3
2016-Apr-17 13:33N 50°50' W 127°28'1312.9
2016-Apr-17 12:33N 50°45' W 127°09'1512.5
2016-Apr-17 11:23N 50°39' W 126°48'4511.7
2016-Apr-17 07:32N 50°22' W 125°42'1010.2
2016-Apr-17 06:33N 50°20' W 125°27'1110.9
2016-Apr-17 05:33N 50°10' W 125°22'9 9.0
2016-Apr-17 04:33N 50°03' W 125°14'1111.5
2016-Apr-17 03:33N 49°54' W 125°02'1212.4
2016-Apr-17 02:33N 49°46' W 124°47'1312.6
2016-Apr-17 01:33N 49°38' W 124°32'1312.6
2016-Apr-17 00:33N 49°32' W 124°15'1212.5
2016-Apr-16 23:33N 49°24' W 124°00'1212.2
2016-Apr-16 22:33N 49°17' W 123°45'1312.8
2016-Apr-16 21:34N 49°09' W 123°30'1212.4
2016-Apr-16 20:33N 49°01' W 123°16'1212.2
2016-Apr-16 19:33N 48°53' W 123°02'1312.7
2016-Apr-16 18:33N 48°45' W 122°46'1111.2
2016-Apr-16 17:34N 48°34' W 122°45'1211.7
2016-Apr-16 16:33N 48°22' W 122°45'1111.3
2016-Apr-16 15:33N 48°11' W 122°46'1313.6
2016-Apr-16 14:33N 47°59' W 122°35'1312.8
2016-Apr-16 13:34N 47°48' W 122°26'9 8.5
2016-Apr-16 12:34N 47°40' W 122°24'1 1.0
2016-Apr-16 11:34N 47°39' W 122°22'0 0.0
2016-Apr-16 10:34N 47°39' W 122°22'0 0.0
2016-Apr-16 09:34N 47°39' W 122°22'0 0.0
2016-Apr-16 08:33N 47°39' W 122°22'0 0.0
2016-Apr-16 07:34N 47°39' W 122°22'0 0.0
2016-Apr-16 06:34N 47°39' W 122°22'0 0.0
2016-Apr-16 05:33N 47°39' W 122°22'0 0.0
2016-Apr-16 04:34N 47°39' W 122°22'0 0.0
2016-Apr-16 03:34N 47°39' W 122°22'0 0.0
2016-Apr-16 02:34N 47°39' W 122°22'0 0.0
2016-Apr-16 01:34N 47°39' W 122°22'0 0.0
2016-Apr-16 00:34N 47°39' W 122°22'0 0.0
2016-Apr-15 23:34N 47°39' W 122°22'0 0.0
2016-Apr-15 22:31N 47°39' W 122°22'0 0.0
2016-Apr-15 21:32N 47°39' W 122°22'0 0.0
2016-Apr-15 20:31N 47°39' W 122°22'0 0.0
2016-Apr-15 19:32N 47°39' W 122°22'0 0.0
2016-Apr-15 18:32N 47°39' W 122°22'0 0.0
2016-Apr-15 17:31N 47°39' W 122°22'  
2016-Apr-09 21:33N 47°40' W 122°24'7 6.5
2016-Apr-09 20:33N 47°46' W 122°27'1110.6
2016-Apr-09 19:34N 47°56' W 122°32'9 8.6
2016-Apr-09 18:31N 48°04' W 122°40'7 6.9
2016-Apr-09 17:28N 48°10' W 122°45'6 6.6
2016-Apr-09 16:33N 48°15' W 122°49'1110.8
2016-Apr-09 15:33N 48°26' W 122°45'1110.8
2016-Apr-09 14:33N 48°37' W 122°45'9 8.7
2016-Apr-09 13:33N 48°45' W 122°48'10 9.8
2016-Apr-09 12:34N 48°50' W 123°01'10 9.5
2016-Apr-09 11:33N 48°56' W 123°13'10 9.9
2016-Apr-09 10:33N 49°03' W 123°24'1010.5
2016-Apr-09 09:34N 49°10' W 123°36'1110.6
2016-Apr-09 08:34N 49°16' W 123°48'1110.9
2016-Apr-09 07:33N 49°23' W 124°01'1110.6
2016-Apr-09 06:34N 49°31' W 124°12'1010.2
2016-Apr-09 05:34N 49°36' W 124°26'1010.0
2016-Apr-09 04:34N 49°41' W 124°39'1010.2
2016-Apr-09 03:34N 49°48' W 124°51'1010.1
2016-Apr-09 02:33N 49°55' W 125°03'1010.4
2016-Apr-09 01:34N 50°02' W 125°14'1211.9
2016-Apr-09 00:34N 50°13' W 125°22'  

Dump ship's entire track history